Latest Weather Observations for Swanbourne

IDW60901

Issued at 2:01 pm WST Tuesday 24 May 2016 (issued every 10 minutes, with the page automatically refreshed every 10 minutes)

About weather observations | Map of Perth area stations | Latest observations for Perth area | Other Formats
Station Details ID: 009215 Name: SWANBOURNE Lat: -31.96 Lon: 115.76 Height: 40.96 m
Data from the previous 72 hours. | See also: Recent months at Swanbourne
Date/Time
WST
Tmp

°C
App
Tmp
°C
Dew
Point
°C
Rel
Hum
%
Delta-T

°C
Wind Press
QNH
hPa
Press
MSL
hPa
Rain
since
9 am
mm
Dir
 
Spd
km/h
Gust
km/h
Spd
kts
Gust
kts
24/02:00pm 17.5 13.7 9.9 61 4.0 SW 20 30 11 16 - - 0.0
24/01:30pm 18.7 15.2 11.0 61 4.2 SW 20 32 11 17 - - 0.0
24/01:00pm 18.9 14.5 8.8 52 5.3 WSW 22 30 12 16 - - 0.0
24/12:30pm 19.2 14.8 9.1 52 5.3 WSW 22 35 12 19 - - 0.0
24/12:00pm 18.7 13.7 8.1 50 5.5 WSW 24 37 13 20 - - 0.0
24/11:30am 18.5 12.9 7.0 47 5.8 WSW 26 35 14 19 - - 0.0
24/11:00am 18.4 11.6 6.9 47 5.8 WSW 32 44 17 24 - - 0.0
24/10:30am 18.3 11.8 8.8 54 4.9 WSW 33 50 18 27 - - 0.0
24/10:00am 17.7 11.4 9.6 59 4.3 WSW 33 46 18 25 - - 0.0
24/09:30am 17.7 12.7 11.0 65 3.6 SW 28 41 15 22 - - 0.0
24/09:00am 17.6 12.4 11.6 68 3.3 SW 30 43 16 23 - - 30.2
24/08:30am 17.4 13.0 12.9 75 2.5 SW 28 41 15 22 - - 30.2
24/08:00am 16.7 12.9 15.7 94 0.6 WSW 30 43 16 23 - - 30.2
24/07:47am 16.4 12.7 16.1 98 0.2 SW 30 57 16 31 - - 30.2
24/07:30am 16.5 12.9 16.3 99 0.1 SW 30 46 16 25 - - 30.2
24/07:00am 16.6 12.1 16.4 99 0.1 SW 35 54 19 29 - - 30.0
24/06:55am 16.9 13.5 16.7 99 0.1 SW 30 54 16 29 - - 30.0
24/06:30am 16.6 12.1 16.4 99 0.1 WSW 35 50 19 27 - - 29.8
24/06:14am 16.9 12.9 16.7 99 0.1 WSW 33 54 18 29 - - 29.8
24/06:00am 16.9 12.9 16.7 99 0.1 WSW 33 48 18 26 - - 29.8
24/05:45am 17.4 13.6 17.2 99 0.1 WSW 33 57 18 31 - - 29.6
24/05:30am 17.4 12.8 17.2 99 0.1 WSW 37 54 20 29 - - 29.0
24/05:15am 18.0 12.0 17.8 99 0.1 WNW 46 70 25 38 - - 28.2
24/05:13am 18.8 12.4 18.6 99 0.1 WNW 50 70 27 38 - - 27.4
24/05:04am 19.0 13.0 18.8 99 0.1 NW 48 70 26 38 - - 24.0
24/05:00am 19.0 13.4 18.8 99 0.1 NW 46 63 25 34 - - 23.0
24/04:30am 18.8 13.5 18.6 99 0.1 NW 44 63 24 34 - - 21.4
24/04:00am 18.3 12.0 18.1 99 0.1 NNW 48 69 26 37 - - 21.2
24/03:31am 18.1 13.5 17.9 99 0.1 NNW 39 61 21 33 - - 19.4
24/03:30am 18.0 13.3 17.8 99 0.1 NNW 39 54 21 29 - - 19.2
24/03:14am 17.0 14.0 16.8 99 0.1 NNW 28 50 15 27 - - 16.6
24/03:00am 16.8 14.5 16.6 99 0.1 NNW 24 35 13 19 - - 14.2
24/02:34am 17.1 13.2 16.9 99 0.1 NNW 33 56 18 30 - - 10.2
24/02:30am 17.1 13.4 16.9 99 0.1 NNW 32 46 17 25 - - 9.6
24/02:23am 16.9 13.9 16.7 99 0.1 NNW 28 46 15 25 - - 8.8
24/02:00am 16.4 13.5 16.1 98 0.2 N 26 41 14 22 - - 6.6
24/01:30am 16.6 12.4 15.6 94 0.6 NNW 32 54 17 29 - - 3.4
24/01:23am 16.8 13.5 16.0 95 0.5 NNW 28 54 15 29 - - 3.4
24/01:00am 16.2 13.7 15.2 94 0.6 N 22 32 12 17 - - 2.6
24/12:30am 16.8 14.2 13.7 82 1.8 N 20 32 11 17 - - 0.4
24/12:00am 17.2 14.1 13.3 78 2.2 N 22 39 12 21 - - 0.0
 
Date/Time
WST
Tmp

°C
App
Tmp
°C
Dew
Point
°C
Rel
Hum
%
Delta-T

°C
Wind Press
QNH
hPa
Press
MSL
hPa
Rain
since
9 am
mm
Dir
 
Spd
km/h
Gust
km/h
Spd
kts
Gust
kts
23/11:30pm 17.7 13.9 12.4 71 2.9 NNW 24 37 13 20 - - 0.0
23/11:00pm 18.1 14.1 11.9 67 3.4 NNW 24 43 13 23 - - 0.0
23/10:30pm 18.0 14.6 11.3 65 3.6 N 20 33 11 18 - - 0.0
23/10:00pm 18.0 14.7 10.9 63 3.8 N 19 33 10 18 - - 0.0
23/09:30pm 17.9 14.8 10.3 61 4.1 N 17 28 9 15 - - 0.0
23/09:00pm 17.9 14.8 10.3 61 4.1 N 17 24 9 13 - - 0.0
23/08:30pm 18.1 15.3 10.0 59 4.3 N 15 24 8 13 - - 0.0
23/08:00pm 18.1 15.2 9.7 58 4.4 N 15 24 8 13 - - 0.0
23/07:30pm 17.9 15.3 9.5 58 4.4 N 13 20 7 11 - - 0.0
23/07:00pm 17.8 15.6 9.4 58 4.4 N 11 19 6 10 - - 0.0
23/06:30pm 17.8 15.3 8.4 54 4.8 N 11 19 6 10 - - 0.0
23/06:00pm 18.4 15.8 7.8 50 5.4 N 11 17 6 9 - - 0.0
23/05:30pm 18.5 15.5 7.6 49 5.5 N 13 20 7 11 - - 0.0
23/05:00pm 18.8 14.9 7.3 47 5.8 N 17 32 9 17 - - 0.0
23/04:30pm 18.9 15.4 7.4 47 5.8 N 15 22 8 12 - - 0.0
23/04:00pm 19.1 13.4 6.9 45 6.1 N 26 37 14 20 - - 0.0
23/03:30pm 19.4 14.6 7.2 45 6.2 N 22 35 12 19 - - 0.0
23/03:00pm 19.8 14.9 8.5 48 5.9 NNW 24 35 13 19 - - 0.0
23/02:30pm 20.4 16.8 8.4 46 6.3 N 17 26 9 14 - - 0.0
23/02:00pm 20.1 15.7 7.5 44 6.5 N 20 35 11 19 - - 0.0
23/01:30pm 19.9 15.2 7.6 45 6.3 N 22 32 12 17 - - 0.0
23/01:00pm 19.7 15.5 8.4 48 5.9 N 20 33 11 18 - - 0.0
23/12:30pm 19.6 14.8 8.9 50 5.6 N 24 41 13 22 - - 0.0
23/12:00pm 18.9 14.4 8.6 51 5.4 N 22 41 12 22 - - 0.0
23/11:30am 18.8 15.2 9.8 56 4.8 N 19 30 10 16 - - 0.0
23/11:00am 18.1 15.1 10.5 61 4.1 N 17 28 9 15 - - 0.0
23/10:30am 17.4 14.2 10.1 62 3.9 N 17 28 9 15 - - 0.0
23/10:00am 16.7 13.9 10.1 65 3.5 NNE 15 24 8 13 - - 0.0
23/09:30am 15.1 12.8 10.3 73 2.5 NNE 13 22 7 12 - - 0.0
23/09:00am 14.1 10.8 9.5 74 2.4 NNE 17 28 9 15 - - 7.2
23/08:30am 13.2 10.3 9.6 79 1.8 NNE 15 24 8 13 - - 7.2
23/08:00am 12.7 10.3 9.9 83 1.4 NNE 13 20 7 11 - - 7.2
23/07:30am 12.2 9.8 10.1 87 1.1 NE 13 22 7 12 - - 7.2
23/07:00am 12.4 10.0 10.1 86 1.2 NNE 13 20 7 11 - - 7.2
23/06:30am 12.4 10.6 10.8 90 0.8 NNE 11 20 6 11 - - 7.2
23/06:00am 12.2 10.5 11.3 94 0.5 NNE 11 17 6 9 - - 7.2
23/05:30am 12.0 10.4 11.5 97 0.3 NNE 11 17 6 9 - - 7.2
23/05:00am 11.8 10.2 11.5 98 0.2 NNE 11 17 6 9 - - 7.2
23/04:30am 11.6 10.3 11.3 98 0.2 NE 9 13 5 7 - - 7.2
23/04:00am 12.5 11.5 12.2 98 0.2 ENE 9 13 5 7 - - 7.2
23/03:30am 13.2 12.8 12.9 98 0.2 ENE 7 13 4 7 - - 7.2
23/03:00am 13.8 13.2 13.5 98 0.2 NE 9 13 5 7 - - 7.2
23/02:30am 14.0 13.5 13.7 98 0.2 NE 9 15 5 8 - - 7.2
23/02:00am 14.5 14.7 14.2 98 0.2 NNE 6 9 3 5 - - 7.0
23/01:30am 14.7 14.8 14.4 98 0.2 N 7 9 4 5 - - 5.6
23/01:00am 15.2 16.0 14.9 98 0.2 NNW 4 7 2 4 - - 4.8
23/12:30am 15.4 16.0 14.3 93 0.6 N 4 6 2 3 - - 3.8
23/12:00am 15.5 14.5 14.7 95 0.5 NW 13 20 7 11 - - 3.8
 
Date/Time
WST
Tmp

°C
App
Tmp
°C
Dew
Point
°C
Rel
Hum
%
Delta-T

°C
Wind Press
QNH
hPa
Press
MSL
hPa
Rain
since
9 am
mm
Dir
 
Spd
km/h
Gust
km/h
Spd
kts
Gust
kts
22/11:30pm 16.1 14.3 15.5 96 0.3 W 19 35 10 19 - - 3.8
22/11:00pm 15.7 14.2 15.4 98 0.2 W 17 28 9 15 - - 3.8
22/10:30pm 15.5 14.0 15.2 98 0.2 NW 17 22 9 12 - - 3.4
22/10:00pm 15.6 15.3 14.3 92 0.7 WSW 9 15 5 8 - - 1.6
22/09:30pm 16.4 14.0 13.7 84 1.5 NW 19 28 10 15 - - 0.8
22/09:00pm 16.4 15.8 13.5 83 1.6 NNW 9 15 5 8 - - 0.8
22/08:30pm 16.3 14.3 13.8 85 1.4 NW 17 24 9 13 - - 0.8
22/08:00pm 15.9 15.1 14.1 89 1.0 W 11 17 6 9 - - 0.8
22/07:30pm 17.1 15.3 13.2 78 2.2 WNW 15 20 8 11 - - 0.0
22/07:00pm 17.0 15.0 13.9 82 1.8 W 17 24 9 13 - - 0.0
22/06:30pm 16.3 14.2 13.6 84 1.5 W 17 22 9 12 - - 0.0
22/06:00pm 17.1 14.2 12.4 74 2.6 WNW 19 26 10 14 - - 0.0
22/05:30pm 16.6 13.3 12.9 79 2.1 WSW 22 35 12 19 - - 0.0
22/05:00pm 16.9 13.0 12.2 74 2.6 WSW 24 35 13 19 - - 0.0
22/04:30pm 18.3 14.1 11.1 63 3.9 WNW 24 32 13 17 - - 0.0
22/04:00pm 18.9 15.1 11.2 61 4.2 WNW 22 33 12 18 - - 0.0
22/03:30pm 18.3 14.0 10.7 61 4.1 WNW 24 33 13 18 - - 0.0
22/03:00pm 18.6 13.9 9.4 55 4.8 WNW 24 33 13 18 - - 0.0
22/02:30pm 19.7 15.8 10.7 56 4.9 W 22 32 12 17 - - 0.0
22/02:00pm 19.4 15.5 10.9 58 4.6 W 22 35 12 19 - - 0.0
22/01:30pm 18.2 14.1 10.1 59 4.3 W 22 35 12 19 - - 0.0
22/01:00pm 17.0 12.9 11.5 70 3.0 WNW 24 37 13 20 - - 0.0
22/12:30pm 18.8 14.5 10.6 59 4.4 W 24 33 13 18 - - 0.0
22/12:00pm 19.2 15.3 10.7 58 4.6 W 22 32 12 17 - - 0.0
22/11:30am 19.2 15.7 10.2 56 4.8 W 19 28 10 15 - - 0.0
22/11:00am 18.9 15.4 10.2 57 4.7 W 19 24 10 13 - - 0.0
22/10:30am 18.4 14.9 10.3 59 4.3 WSW 19 30 10 16 - - 0.0
22/10:00am 17.9 14.1 9.8 59 4.3 WSW 20 32 11 17 - - 0.0
22/09:30am 17.2 13.6 9.9 62 3.9 WSW 19 28 10 15 - - 0.0
22/09:00am 17.4 13.5 10.8 65 3.5 WSW 22 32 12 17 - - 9.4
22/08:30am 16.9 13.8 10.3 65 3.5 W 17 32 9 17 - - 9.4
22/08:00am 16.1 12.0 10.0 67 3.2 WSW 22 33 12 18 - - 9.4
22/07:30am 16.1 11.5 9.5 65 3.4 WSW 24 33 13 18 - - 9.4
22/07:00am 15.6 10.7 9.9 69 3.0 WSW 26 37 14 20 - - 9.4
22/06:30am 15.1 12.0 11.5 79 1.9 W 19 32 10 17 - - 9.4
22/06:00am 15.3 11.4 10.7 74 2.4 WSW 22 41 12 22 - - 9.4
22/05:30am 14.6 10.3 10.6 77 2.1 W 24 37 13 20 - - 9.4
22/05:00am 14.4 10.4 10.4 77 2.1 W 22 32 12 17 - - 9.4
22/04:30am 14.7 8.4 9.1 69 2.9 WSW 32 44 17 24 - - 9.4
22/04:00am 14.8 9.9 10.0 73 2.5 WSW 26 43 14 23 - - 9.4
22/03:39am 14.0 8.0 8.8 71 2.6 WSW 30 48 16 26 - - 9.4
22/03:30am 14.1 9.4 10.7 80 1.8 SW 26 50 14 27 - - 9.4
22/03:00am 12.8 8.3 10.2 84 1.3 WSW 24 43 13 23 - - 9.4
22/02:49am 13.5 8.0 10.5 82 1.6 W 30 50 16 27 - - 9.2
22/02:30am 12.2 8.5 10.1 87 1.1 WSW 20 35 11 19 - - 9.2
22/02:00am 13.8 8.8 8.2 69 2.8 WSW 24 33 13 18 - - 8.6
22/01:30am 13.1 9.2 9.4 78 1.9 SW 20 37 11 20 - - 8.6
22/01:14am 13.5 7.2 8.8 73 2.4 WSW 32 50 17 27 - - 8.6
22/01:00am 12.8 7.6 10.3 85 1.3 SW 28 43 15 23 - - 8.6
22/12:30am 11.4 5.8 8.8 84 1.3 SW 28 61 15 33 - - 8.6
22/12:22am 11.9 5.9 8.6 80 1.6 WSW 30 61 16 33 - - 8.0
22/12:00am 12.5 7.4 9.1 80 1.7 SW 26 39 14 21 - - 7.4
 
Date/Time
WST
Tmp

°C
App
Tmp
°C
Dew
Point
°C
Rel
Hum
%
Delta-T

°C
Wind Press
QNH
hPa
Press
MSL
hPa
Rain
since
9 am
mm
Dir
 
Spd
km/h
Gust
km/h
Spd
kts
Gust
kts
21/11:30pm 12.9 7.9 8.2 73 2.3 SW 24 35 13 19 - - 7.0
21/11:00pm 12.9 6.3 7.6 70 2.6 SW 32 56 17 30 - - 7.0
21/10:32pm 14.2 7.3 6.3 59 3.8 SW 32 52 17 28 - - 7.0
21/10:30pm 14.0 7.1 6.6 61 3.6 SW 32 44 17 24 - - 7.0
21/10:00pm 14.1 7.8 7.4 64 3.3 SW 30 50 16 27 - - 7.0
21/09:30pm 13.1 6.4 8.2 72 2.4 SW 33 48 18 26 - - 7.0
21/09:09pm 14.6 6.8 6.7 59 3.8 SW 37 70 20 38 - - 6.4
21/09:00pm 14.2 7.5 7.5 64 3.3 SW 32 50 17 27 - - 6.4
21/08:30pm 11.8 6.0 9.5 86 1.2 W 30 48 16 26 - - 6.4
21/08:19pm 12.5 4.9 9.1 80 1.7 WSW 39 61 21 33 - - 6.2
21/08:16pm 13.1 6.0 8.0 71 2.5 WSW 35 52 19 28 - - 6.0
21/08:00pm 11.6 2.5 8.5 81 1.5 SW 46 70 25 38 - - 6.0
21/07:57pm 12.2 3.6 8.9 80 1.7 SW 44 70 24 38 - - 6.0
21/07:55pm 13.0 4.4 8.3 73 2.3 WSW 43 70 23 38 - - 6.0
21/07:30pm 13.7 6.5 7.5 66 3.0 WSW 35 61 19 33 - - 6.0
21/07:00pm 12.9 4.2 7.8 71 2.5 WSW 43 63 23 34 - - 6.0
21/06:30pm 14.2 6.1 8.6 69 2.8 WSW 41 69 22 37 - - 5.8
21/06:00pm 14.0 6.2 8.2 68 2.9 W 39 59 21 32 - - 5.8
21/05:30pm 12.1 4.6 8.0 76 2.0 W 37 63 20 34 - - 5.6
21/05:00pm 13.6 4.1 8.2 70 2.7 WSW 48 76 26 41 - - 5.4
21/04:30pm 13.3 4.8 7.1 66 3.0 W 41 63 22 34 - - 5.2
21/04:08pm 14.0 6.3 8.6 70 2.7 WSW 39 65 21 35 - - 5.2
21/04:00pm 13.2 6.8 10.6 84 1.4 WSW 35 54 19 29 - - 5.2
21/03:30pm 11.2 2.3 9.3 88 1.0 W 46 74 25 40 - - 4.6
21/03:22pm 11.7 1.3 9.3 85 1.2 WSW 54 82 29 44 - - 4.2
21/03:02pm 16.7 6.9 5.3 47 5.5 W 46 67 25 36 - - 2.4
21/03:00pm 16.7 7.1 6.2 50 5.1 W 46 63 25 34 - - 2.4
21/02:30pm 16.5 7.7 7.2 54 4.6 W 43 67 23 36 - - 2.4

Latest Capital City Observations: Canberra | Sydney | Melbourne | Brisbane | Adelaide | Perth | Hobart | Darwin

Other Formats:

Comma delimited format used in spreadsheet applications
http://www.bom.gov.au/fwo/IDW60901/IDW60901.94614.axf

JavaScript Object Notation format (JSON) in row-major order
http://www.bom.gov.au/fwo/IDW60901/IDW60901.94614.json